Time;durP1;ratioP1;P1;durP2;ratioP2;P2;SDS_P1;SDS_P2;PMS_P1;PMS_P2;Temp;Humidity;BMP_temperature;BMP_pressure;BME280_temperature;BME280_humidity;BME280_pressure;Samples;Min_cycle;Max_cycle;Signal;HPM_P1;HPM_P2
2023/06/26 00:00:40;;;;;;;16.08;9.45;;;16.60;99.90;;;;;;5007429;28;20061;-77
2023/06/26 00:03:05;;;;;;;15.55;8.82;;;16.60;99.90;;;;;;5007976;28;20136;-77
2023/06/26 00:05:31;;;;;;;18.27;9.32;;;16.60;99.90;;;;;;5007786;28;20034;-75
2023/06/26 00:08:00;;;;;;;16.55;8.93;;;16.50;99.90;;;;;;5006974;28;20022;-77
2023/06/26 00:10:28;;;;;;;14.52;8.75;;;16.50;99.90;;;;;;5008408;28;20398;-79
2023/06/26 00:12:54;;;;;;;15.60;8.85;;;16.40;99.90;;;;;;5006680;28;20053;-77
2023/06/26 00:15:20;;;;;;;15.90;9.00;;;16.40;99.90;;;;;;4990213;28;20120;-78
2023/06/26 00:17:45;;;;;;;15.00;8.60;;;16.30;99.90;;;;;;5010811;28;20041;-77
2023/06/26 00:20:11;;;;;;;17.77;9.98;;;16.30;99.90;;;;;;5011004;28;20026;-77
2023/06/26 00:22:40;;;;;;;16.95;9.43;;;16.20;99.90;;;;;;5010237;28;20522;-77
2023/06/26 00:25:06;;;;;;;14.88;8.75;;;16.10;99.90;;;;;;5010540;28;20045;-76
2023/06/26 00:27:32;;;;;;;16.92;8.90;;;16.10;99.90;;;;;;5010552;28;20040;-77
2023/06/26 00:29:58;;;;;;;16.85;9.18;;;16.10;99.90;;;;;;5010008;28;20037;-76
2023/06/26 00:32:23;;;;;;;16.55;9.23;;;16.20;99.90;;;;;;5010286;28;20085;-74
2023/06/26 00:34:49;;;;;;;19.48;10.15;;;16.20;99.90;;;;;;5010216;28;20557;-77
2023/06/26 00:37:14;;;;;;;15.20;8.82;;;16.20;99.90;;;;;;5011610;28;20022;-77
2023/06/26 00:39:40;;;;;;;15.60;8.77;;;16.10;99.90;;;;;;5010798;28;20425;-78
2023/06/26 00:42:06;;;;;;;15.98;8.88;;;16.10;99.90;;;;;;5011469;28;20406;-78
2023/06/26 00:44:32;;;;;;;15.75;9.00;;;16.00;99.90;;;;;;5009401;28;20084;-76
2023/06/26 00:46:57;;;;;;;17.48;9.00;;;15.90;99.90;;;;;;5010874;28;20034;-77
2023/06/26 00:49:24;;;;;;;18.80;9.35;;;15.90;99.90;;;;;;5011647;28;20057;-76
2023/06/26 00:51:50;;;;;;;15.93;8.65;;;15.90;99.90;;;;;;5010301;28;20030;-76
2023/06/26 00:54:19;;;;;;;18.80;9.20;;;16.00;99.90;;;;;;5009424;28;20044;-77
2023/06/26 00:56:47;;;;;;;16.30;9.15;;;15.90;99.90;;;;;;5009827;28;20430;-76
2023/06/26 00:59:13;;;;;;;15.00;9.23;;;15.90;99.90;;;;;;5010788;28;20038;-78
2023/06/26 01:01:38;;;;;;;17.75;9.52;;;16.00;99.90;;;;;;5009512;28;20042;-73
2023/06/26 01:04:05;;;;;;;19.63;9.15;;;16.00;99.90;;;;;;5010172;28;20124;-76
2023/06/26 01:06:35;;;;;;;19.40;9.27;;;16.00;99.90;;;;;;5010907;28;20026;-76
2023/06/26 01:09:02;;;;;;;16.35;9.10;;;15.90;99.90;;;;;;5008266;28;20030;-75
2023/06/26 01:11:28;;;;;;;16.85;9.02;;;15.70;99.90;;;;;;5010932;28;20038;-78
2023/06/26 01:13:56;;;;;;;15.32;8.90;;;15.60;99.90;;;;;;5009024;28;20037;-77
2023/06/26 01:16:24;;;;;;;16.48;9.10;;;15.50;99.90;;;;;;5010874;28;20025;-77
2023/06/26 01:18:49;;;;;;;17.42;9.52;;;15.50;99.90;;;;;;5009178;28;20030;-76
2023/06/26 01:21:17;;;;;;;17.25;9.68;;;15.40;99.90;;;;;;5010272;28;20032;-76
2023/06/26 01:23:58;;;;;;;15.57;9.13;;;15.40;99.90;;;;;;5009073;28;20026;-76
2023/06/26 01:26:25;;;;;;;;;;;15.40;99.90;;;;;;5010130;28;20026;-78
2023/06/26 01:28:53;;;;;;;16.48;8.75;;;15.40;99.90;;;;;;5008065;28;19916;-76
2023/06/26 01:31:19;;;;;;;19.50;9.82;;;15.30;99.90;;;;;;5009560;28;20034;-76
2023/06/26 01:33:46;;;;;;;20.98;9.82;;;15.30;99.90;;;;;;5008047;28;20137;-78
2023/06/26 01:36:12;;;;;;;16.60;8.77;;;15.30;99.90;;;;;;5008853;28;20022;-77
2023/06/26 01:38:37;;;;;;;16.98;9.48;;;15.20;99.90;;;;;;5008404;28;20041;-74
2023/06/26 01:41:04;;;;;;;15.82;8.60;;;15.20;99.90;;;;;;5007781;28;20842;-78
2023/06/26 01:43:55;;;;;;;17.42;9.30;;;15.20;99.90;;;;;;5008685;28;20037;-77
2023/06/26 01:46:27;;;;;;;18.52;9.80;;;15.30;99.90;;;;;;5009335;28;20116;-78
2023/06/26 01:49:10;;;;;;;17.48;9.35;;;15.20;99.90;;;;;;5008091;28;20124;-77
2023/06/26 01:51:45;;;;;;;17.05;9.55;;;15.30;99.90;;;;;;5010119;28;20068;-79
2023/06/26 01:54:16;;;;;;;16.77;9.20;;;15.10;99.90;;;;;;5007669;28;20061;-77
2023/06/26 01:56:44;;;;;;;16.38;9.32;;;15.10;99.90;;;;;;5008868;28;20038;-76
2023/06/26 01:59:13;;;;;;;16.60;9.48;;;15.00;99.90;;;;;;5009637;28;20126;-80
2023/06/26 02:01:39;;;;;;;16.85;9.20;;;15.00;99.90;;;;;;5008668;28;20100;-76
2023/06/26 02:04:05;;;;;;;19.05;10.23;;;14.90;99.90;;;;;;5008980;28;20710;-78
2023/06/26 02:06:30;;;;;;;19.55;10.00;;;14.90;99.90;;;;;;5008900;28;20022;-78
2023/06/26 02:08:56;;;;;;;17.45;9.15;;;14.90;99.90;;;;;;5009060;28;20038;-79
2023/06/26 02:11:22;;;;;;;16.73;9.13;;;14.90;99.90;;;;;;5009580;28;20030;-77
2023/06/26 02:13:48;;;;;;;17.10;9.45;;;14.90;99.90;;;;;;5008277;28;20029;-79
2023/06/26 02:16:14;;;;;;;18.70;10.15;;;15.00;99.90;;;;;;5008841;28;20048;-79
2023/06/26 02:18:39;;;;;;;17.90;9.88;;;14.90;99.90;;;;;;5008569;28;20512;-75
2023/06/26 02:21:06;;;;;;;16.75;9.32;;;14.80;99.90;;;;;;5002847;28;20041;-75
2023/06/26 02:23:32;;;;;;;16.80;9.50;;;14.70;99.90;;;;;;5006079;28;20041;-75
2023/06/26 02:25:57;;;;;;;18.52;9.07;;;14.70;99.90;;;;;;5005283;28;21426;-76
2023/06/26 02:28:23;;;;;;;17.45;9.60;;;14.70;99.90;;;;;;5009112;28;20021;-77
2023/06/26 02:30:49;;;;;;;18.60;9.90;;;14.70;99.90;;;;;;5008661;28;20092;-78
2023/06/26 02:33:14;;;;;;;15.48;9.18;;;14.60;99.90;;;;;;5004406;28;20227;-79
2023/06/26 02:35:40;;;;;;;17.38;9.73;;;14.70;99.90;;;;;;5000814;28;20042;-75
2023/06/26 02:38:06;;;;;;;14.82;8.80;;;14.60;99.90;;;;;;5007815;28;20059;-77
2023/06/26 02:40:32;;;;;;;17.63;9.75;;;14.60;99.90;;;;;;5006201;28;20080;-76
2023/06/26 02:42:58;;;;;;;18.17;9.70;;;14.60;99.90;;;;;;5002573;28;20046;-77
2023/06/26 02:45:23;;;;;;;18.85;10.15;;;14.50;99.90;;;;;;5008631;28;20069;-78
2023/06/26 02:47:49;;;;;;;17.35;9.52;;;14.50;99.90;;;;;;5008389;28;20037;-78
2023/06/26 02:50:14;;;;;;;17.58;9.38;;;14.60;99.90;;;;;;5008624;28;20033;-78
2023/06/26 02:52:40;;;;;;;15.85;9.43;;;14.60;99.90;;;;;;5006784;28;20041;-78
2023/06/26 02:55:06;;;;;;;19.40;9.70;;;14.60;99.90;;;;;;5008201;28;20048;-78
2023/06/26 02:57:32;;;;;;;17.58;9.32;;;14.60;99.90;;;;;;5009088;28;20030;-78
2023/06/26 02:59:57;;;;;;;16.00;9.38;;;14.60;99.90;;;;;;5004857;28;20390;-78
2023/06/26 03:02:23;;;;;;;17.23;9.32;;;14.70;99.90;;;;;;5008070;28;20026;-79
2023/06/26 03:04:49;;;;;;;20.13;9.52;;;14.70;99.90;;;;;;5006199;28;20167;-78
2023/06/26 03:07:15;;;;;;;19.00;9.93;;;14.80;99.90;;;;;;5007231;28;20219;-76
2023/06/26 03:09:41;;;;;;;20.00;9.40;;;14.70;99.90;;;;;;5008681;28;20356;-79
2023/06/26 03:12:08;;;;;;;17.38;10.07;;;14.70;99.90;;;;;;5007202;28;20029;-78
2023/06/26 03:14:33;;;;;;;16.65;9.20;;;14.60;99.90;;;;;;4990438;28;20037;-79
2023/06/26 03:17:03;;;;;;;17.30;9.52;;;14.70;99.90;;;;;;5007254;28;20438;-77
2023/06/26 03:19:28;;;;;;;17.27;9.52;;;14.60;99.90;;;;;;5006238;28;20093;-78
2023/06/26 03:21:55;;;;;;;17.30;9.85;;;14.50;99.90;;;;;;5005976;28;20042;-76
2023/06/26 03:24:20;;;;;;;17.27;9.50;;;14.50;99.90;;;;;;5004861;28;20041;-73
2023/06/26 03:26:46;;;;;;;17.60;9.43;;;14.40;99.90;;;;;;5007317;28;20053;-73
2023/06/26 03:29:14;;;;;;;18.27;9.68;;;14.40;99.90;;;;;;5008203;28;20065;-74
2023/06/26 03:31:40;;;;;;;21.00;9.73;;;14.40;99.90;;;;;;5006079;28;20030;-73
2023/06/26 03:34:05;;;;;;;17.95;9.60;;;14.40;99.90;;;;;;5003836;28;20046;-73
2023/06/26 03:36:31;;;;;;;16.40;9.27;;;14.20;99.90;;;;;;5002338;28;20034;-73
2023/06/26 03:38:56;;;;;;;17.67;9.63;;;14.20;99.90;;;;;;5007731;28;20033;-75
2023/06/26 03:41:23;;;;;;;16.65;8.70;;;14.30;99.90;;;;;;5007532;28;20475;-75
2023/06/26 03:43:49;;;;;;;16.38;8.85;;;14.30;99.90;;;;;;5006093;28;20068;-72
2023/06/26 03:46:14;;;;;;;18.60;9.15;;;14.30;99.90;;;;;;5007533;28;20567;-74
2023/06/26 03:48:40;;;;;;;17.80;9.25;;;14.30;99.90;;;;;;5008345;28;20543;-73
2023/06/26 03:51:06;;;;;;;15.93;9.63;;;14.30;99.90;;;;;;5007606;28;20129;-73
2023/06/26 03:53:32;;;;;;;18.75;9.90;;;14.30;99.90;;;;;;5012279;28;20433;-74
2023/06/26 03:55:58;;;;;;;17.90;9.68;;;14.30;99.90;;;;;;5010263;28;20029;-74
2023/06/26 03:58:25;;;;;;;17.63;10.18;;;14.30;99.90;;;;;;5011241;28;20034;-74
2023/06/26 04:00:50;;;;;;;16.50;9.35;;;14.30;99.90;;;;;;5010385;28;20470;-74
2023/06/26 04:03:16;;;;;;;18.60;9.77;;;14.30;99.90;;;;;;5011076;28;20049;-74
2023/06/26 04:05:42;;;;;;;24.40;9.35;;;14.30;99.90;;;;;;5010686;28;20046;-74
2023/06/26 04:08:08;;;;;;;19.55;9.80;;;14.40;99.90;;;;;;5010584;28;20478;-74
2023/06/26 04:10:33;;;;;;;20.55;10.57;;;14.60;99.90;;;;;;5011286;28;20034;-73
2023/06/26 04:12:59;;;;;;;23.98;9.95;;;14.60;99.90;;;;;;4997186;28;20097;-75
2023/06/26 04:15:25;;;;;;;19.10;10.40;;;14.60;99.90;;;;;;4991546;28;20038;-74
2023/06/26 04:17:50;;;;;;;17.70;9.48;;;14.50;99.90;;;;;;5007461;28;20516;-73
2023/06/26 04:20:16;;;;;;;16.45;9.38;;;14.60;99.90;;;;;;5005568;28;20035;-73
2023/06/26 04:22:42;;;;;;;16.50;9.93;;;14.70;99.90;;;;;;4988555;28;20045;-74
2023/06/26 04:25:08;;;;;;;18.67;9.75;;;14.90;99.90;;;;;;4997680;28;20046;-73
2023/06/26 04:27:33;;;;;;;16.58;9.40;;;15.00;99.90;;;;;;4987941;28;20026;-73
2023/06/26 04:29:59;;;;;;;18.85;10.63;;;15.10;99.90;;;;;;4986855;28;20427;-74
2023/06/26 04:32:24;;;;;;;18.70;9.95;;;15.20;99.90;;;;;;4994084;28;21126;-73
2023/06/26 04:34:50;;;;;;;19.50;10.07;;;15.30;99.90;;;;;;4988036;28;20061;-75
2023/06/26 04:37:18;;;;;;;18.88;10.48;;;15.40;99.90;;;;;;4990832;28;20491;-75
2023/06/26 04:39:44;;;;;;;18.45;10.00;;;15.50;99.90;;;;;;4988934;28;20049;-71
2023/06/26 04:42:13;;;;;;;17.65;10.05;;;15.50;99.90;;;;;;4988633;28;20038;-74
2023/06/26 04:44:40;;;;;;;20.65;9.40;;;15.50;99.90;;;;;;4992028;28;20449;-73
2023/06/26 04:47:07;;;;;;;21.05;9.98;;;15.50;99.90;;;;;;4993200;28;20219;-73
2023/06/26 04:49:33;;;;;;;16.98;9.55;;;15.60;99.90;;;;;;4996889;28;20026;-75
2023/06/26 04:51:59;;;;;;;20.45;9.95;;;15.60;99.90;;;;;;5007590;28;20541;-72
2023/06/26 04:54:26;;;;;;;17.20;9.63;;;15.80;99.90;;;;;;5009069;28;20831;-74
2023/06/26 04:56:51;;;;;;;19.23;10.48;;;15.90;99.90;;;;;;5008779;28;20022;-72
2023/06/26 04:59:17;;;;;;;26.20;11.07;;;16.00;99.90;;;;;;5010544;28;20108;-73
2023/06/26 05:01:47;;;;;;;19.90;10.65;;;16.30;99.90;;;;;;5008851;28;20037;-74
2023/06/26 05:04:13;;;;;;;20.13;10.75;;;16.40;99.90;;;;;;5008019;28;20050;-73
2023/06/26 05:06:39;;;;;;;19.33;10.18;;;16.50;99.90;;;;;;5010226;28;20092;-75
2023/06/26 05:09:04;;;;;;;16.23;9.73;;;16.60;99.90;;;;;;5009953;28;20772;-73
2023/06/26 05:11:30;;;;;;;17.02;9.98;;;16.90;99.90;;;;;;5008775;28;20034;-73
2023/06/26 05:13:55;;;;;;;16.15;9.70;;;17.10;99.90;;;;;;5006075;28;20042;-72
2023/06/26 05:16:21;;;;;;;17.90;10.15;;;17.20;99.90;;;;;;5010026;28;20038;-75
2023/06/26 05:18:47;;;;;;;16.58;9.68;;;17.50;99.90;;;;;;5009475;28;20597;-74
2023/06/26 05:21:13;;;;;;;19.60;9.93;;;17.70;99.90;;;;;;5008592;28;20040;-74
2023/06/26 05:23:38;;;;;;;20.25;10.90;;;17.90;99.90;;;;;;5009988;28;20281;-75
2023/06/26 05:26:04;;;;;;;17.27;9.77;;;18.00;99.90;;;;;;5006815;28;20478;-74
2023/06/26 05:28:31;;;;;;;19.13;10.63;;;18.10;99.90;;;;;;5008359;28;20037;-73
2023/06/26 05:30:57;;;;;;;16.15;10.10;;;18.20;99.90;;;;;;5008160;28;20026;-75
2023/06/26 05:33:24;;;;;;;19.05;10.15;;;18.40;99.90;;;;;;5006983;28;20038;-74
2023/06/26 05:35:52;;;;;;;18.90;10.02;;;18.50;99.90;;;;;;5008483;28;20045;-74
2023/06/26 05:38:19;;;;;;;19.17;11.07;;;18.70;99.90;;;;;;5010128;28;20041;-76
2023/06/26 05:40:45;;;;;;;20.17;10.98;;;18.70;99.90;;;;;;5010383;28;20048;-76
2023/06/26 05:43:11;;;;;;;17.65;9.73;;;18.80;99.90;;;;;;5008578;28;20045;-76
2023/06/26 05:45:36;;;;;;;20.92;10.63;;;18.90;99.90;;;;;;5010132;28;20033;-78
2023/06/26 05:48:02;;;;;;;18.10;10.45;;;19.00;99.90;;;;;;5009202;28;20491;-75
2023/06/26 05:50:29;;;;;;;18.52;9.73;;;19.20;99.90;;;;;;5010119;28;20030;-78
2023/06/26 05:52:55;;;;;;;18.55;10.57;;;19.40;99.90;;;;;;5008034;28;20584;-76
2023/06/26 05:55:21;;;;;;;19.45;10.68;;;19.50;99.90;;;;;;5009852;28;20049;-76
2023/06/26 05:57:47;;;;;;;19.88;11.13;;;19.70;99.90;;;;;;5010008;28;20482;-74
2023/06/26 06:00:14;;;;;;;18.20;11.07;;;19.80;99.90;;;;;;5009046;28;20274;-75
2023/06/26 06:02:41;;;;;;;17.30;10.55;;;19.90;99.90;;;;;;5009292;28;20030;-75
2023/06/26 06:05:07;;;;;;;18.75;10.43;;;20.00;99.90;;;;;;5009176;28;20128;-74
2023/06/26 06:07:33;;;;;;;17.58;10.45;;;20.20;99.90;;;;;;5009870;28;20105;-76
2023/06/26 06:10:00;;;;;;;18.95;10.77;;;20.30;99.90;;;;;;5008800;28;20087;-77
2023/06/26 06:12:26;;;;;;;18.67;11.00;;;20.40;99.90;;;;;;5009856;28;20037;-78
2023/06/26 06:14:52;;;;;;;19.02;10.77;;;20.50;99.90;;;;;;5008745;28;20037;-73
2023/06/26 06:17:18;;;;;;;16.77;10.35;;;20.60;99.90;;;;;;5008987;28;20033;-78
2023/06/26 06:19:45;;;;;;;22.60;11.18;;;20.80;99.90;;;;;;5009459;28;20141;-77
2023/06/26 06:22:10;;;;;;;16.52;10.60;;;21.10;99.90;;;;;;5007528;28;20564;-76
2023/06/26 06:24:36;;;;;;;21.63;10.52;;;21.30;99.90;;;;;;5005765;28;20038;-77
2023/06/26 06:27:02;;;;;;;16.25;10.40;;;21.60;99.90;;;;;;4988175;28;20119;-77
2023/06/26 06:29:27;;;;;;;18.50;10.05;;;21.80;99.90;;;;;;5006317;28;20029;-77
2023/06/26 06:31:53;;;;;;;16.98;9.75;;;22.00;99.90;;;;;;5005128;28;20034;-73
2023/06/26 06:34:19;;;;;;;16.30;9.65;;;22.30;99.90;;;;;;5007151;28;20450;-78
2023/06/26 06:36:44;;;;;;;16.90;10.73;;;22.50;99.90;;;;;;5001670;28;20034;-77
2023/06/26 06:39:10;;;;;;;17.55;8.65;;;22.70;99.90;;;;;;5008122;28;20490;-75
2023/06/26 06:41:36;;;;;;;16.25;9.48;;;22.80;99.90;;;;;;5008384;28;20026;-76
2023/06/26 06:44:01;;;;;;;15.02;8.95;;;22.90;99.90;;;;;;5004102;28;20045;-77
2023/06/26 06:46:27;;;;;;;14.95;9.25;;;23.00;99.90;;;;;;5007012;28;20040;-79
2023/06/26 06:48:53;;;;;;;17.40;9.02;;;23.10;99.90;;;;;;5007047;28;20033;-77
2023/06/26 06:51:19;;;;;;;16.02;9.13;;;23.20;99.90;;;;;;5008029;28;20554;-77
2023/06/26 06:53:44;;;;;;;13.98;8.32;;;23.40;99.90;;;;;;5007707;28;20128;-77
2023/06/26 06:56:10;;;;;;;16.05;9.07;;;23.60;99.90;;;;;;5007174;28;20040;-74
2023/06/26 06:58:36;;;;;;;14.35;9.15;;;23.80;98.70;;;;;;5007849;28;20034;-76
2023/06/26 07:01:04;;;;;;;15.98;8.55;;;23.90;99.10;;;;;;5007228;28;20120;-77
2023/06/26 07:03:30;;;;;;;15.18;9.15;;;24.10;97.80;;;;;;5007019;28;20204;-75
2023/06/26 07:05:56;;;;;;;18.52;9.57;;;24.20;98.90;;;;;;5007167;28;20038;-73
2023/06/26 07:08:22;;;;;;;12.80;8.65;;;24.50;98.10;;;;;;5007297;28;20068;-76
2023/06/26 07:10:47;;;;;;;16.00;9.43;;;24.50;97.10;;;;;;5007200;28;20084;-77
2023/06/26 07:13:13;;;;;;;13.77;8.55;;;24.60;96.50;;;;;;5005790;28;20037;-77
2023/06/26 07:15:38;;;;;;;13.95;9.02;;;24.60;95.90;;;;;;5008641;28;20034;-77
2023/06/26 07:18:04;;;;;;;15.13;9.23;;;24.70;95.10;;;;;;5007392;28;20135;-75
2023/06/26 07:20:30;;;;;;;14.30;9.35;;;24.70;96.50;;;;;;5007822;28;20044;-75
2023/06/26 07:22:56;;;;;;;18.45;8.88;;;24.80;95.90;;;;;;5004760;28;20030;-71
2023/06/26 07:25:21;;;;;;;15.82;9.88;;;24.90;95.00;;;;;;5007294;28;20042;-77
2023/06/26 07:27:47;;;;;;;21.58;9.40;;;25.00;94.30;;;;;;5010243;28;20042;-77
2023/06/26 07:30:13;;;;;;;15.57;9.02;;;25.10;94.10;;;;;;5009557;28;20026;-79
2023/06/26 07:32:40;;;;;;;15.30;9.18;;;25.20;93.90;;;;;;5009518;28;20034;-72
2023/06/26 07:35:06;;;;;;;12.88;8.63;;;25.40;93.80;;;;;;5009100;28;20049;-79
2023/06/26 07:37:31;;;;;;;14.88;9.25;;;25.40;93.90;;;;;;5011703;28;20038;-76
2023/06/26 07:39:57;;;;;;;14.95;9.23;;;25.40;93.80;;;;;;5011207;28;20084;-72
2023/06/26 07:42:23;;;;;;;16.15;8.55;;;25.60;92.90;;;;;;5012351;28;20056;-78
2023/06/26 07:44:49;;;;;;;13.65;9.40;;;25.60;93.30;;;;;;4995091;28;20379;-75
2023/06/26 07:47:15;;;;;;;14.20;9.10;;;25.90;92.50;;;;;;5011665;28;20026;-75
2023/06/26 07:49:40;;;;;;;15.82;9.13;;;25.90;92.40;;;;;;5011635;28;20507;-75
2023/06/26 07:52:06;;;;;;;14.90;9.25;;;26.00;92.00;;;;;;5011245;28;20046;-79
2023/06/26 07:54:32;;;;;;;14.38;9.20;;;26.10;92.30;;;;;;5012391;28;20041;-75
2023/06/26 07:57:01;;;;;;;14.27;9.60;;;26.10;91.70;;;;;;5011886;28;20378;-71
2023/06/26 07:59:28;;;;;;;14.15;8.70;;;26.30;92.30;;;;;;5012261;28;20029;-78
2023/06/26 08:01:56;;;;;;;12.50;9.02;;;26.40;90.20;;;;;;5011587;28;20061;-76
2023/06/26 08:04:23;;;;;;;14.43;9.63;;;26.50;91.70;;;;;;5011309;28;20054;-77
2023/06/26 08:06:51;;;;;;;14.82;8.95;;;26.60;89.30;;;;;;5012143;28;20060;-77
2023/06/26 08:09:18;;;;;;;14.85;9.07;;;26.70;90.00;;;;;;5010977;28;20040;-77
2023/06/26 08:11:44;;;;;;;13.15;8.43;;;26.80;85.50;;;;;;5011262;28;20054;-76
2023/06/26 08:14:11;;;;;;;13.43;8.65;;;26.80;89.20;;;;;;5010977;28;20072;-77
2023/06/26 08:16:38;;;;;;;13.80;9.02;;;26.80;85.10;;;;;;5011796;28;20022;-78
2023/06/26 08:19:03;;;;;;;16.42;8.55;;;27.00;87.00;;;;;;5011161;28;20045;-75
2023/06/26 08:21:29;;;;;;;12.75;8.45;;;27.00;85.40;;;;;;5011237;28;20470;-76
2023/06/26 08:23:54;;;;;;;13.63;8.15;;;27.20;84.70;;;;;;5012048;28;20041;-76
2023/06/26 08:26:20;;;;;;;13.52;8.40;;;27.30;82.60;;;;;;5011016;28;20575;-76
2023/06/26 08:28:46;;;;;;;12.93;8.43;;;27.40;81.70;;;;;;4993927;28;20080;-74
2023/06/26 08:31:12;;;;;;;12.60;8.15;;;27.30;81.30;;;;;;5010242;28;20404;-77
2023/06/26 08:33:37;;;;;;;14.55;7.82;;;27.20;84.10;;;;;;5011647;28;20073;-78
2023/06/26 08:36:03;;;;;;;12.40;7.63;;;27.40;81.00;;;;;;5011097;28;20068;-73
2023/06/26 08:38:29;;;;;;;13.10;8.98;;;27.60;83.70;;;;;;5010162;28;20025;-74
2023/06/26 08:40:54;;;;;;;12.70;8.32;;;27.50;79.60;;;;;;5010803;28;20087;-74
2023/06/26 08:43:21;;;;;;;16.10;9.18;;;27.50;80.90;;;;;;5010720;28;20398;-75
2023/06/26 08:45:51;;;;;;;13.02;8.60;;;27.40;80.30;;;;;;5009830;28;20050;-74
2023/06/26 08:48:17;;;;;;;14.13;8.13;;;27.60;82.20;;;;;;5010581;28;20026;-76
2023/06/26 08:50:44;;;;;;;19.10;8.68;;;27.90;80.60;;;;;;5009042;28;20705;-77
2023/06/26 08:53:41;;;;;;;12.25;7.72;;;28.00;79.00;;;;;;5010429;28;20030;-76
2023/06/26 08:56:08;;;;;;;13.70;8.00;;;28.20;80.40;;;;;;5008182;28;20056;-76
2023/06/26 08:58:36;;;;;;;14.70;8.25;;;28.20;79.30;;;;;;5011279;28;20026;-77
2023/06/26 09:01:04;;;;;;;10.80;8.05;;;28.30;77.60;;;;;;5010045;28;20080;-75
2023/06/26 09:03:30;;;;;;;14.00;8.55;;;28.40;78.00;;;;;;5010052;28;20113;-75
2023/06/26 09:05:56;;;;;;;13.25;8.45;;;28.50;74.50;;;;;;5010985;28;20080;-76
2023/06/26 09:08:21;;;;;;;12.65;8.07;;;28.30;75.50;;;;;;5010031;28;20478;-75
2023/06/26 09:10:47;;;;;;;16.10;8.43;;;28.40;75.10;;;;;;5010067;28;20049;-76
2023/06/26 09:13:13;;;;;;;11.60;8.15;;;28.40;77.50;;;;;;5009808;28;20026;-76
2023/06/26 09:15:43;;;;;;;12.93;8.07;;;28.60;74.60;;;;;;5010549;28;20049;-75
2023/06/26 09:18:08;;;;;;;14.27;7.95;;;28.50;74.80;;;;;;5009893;28;20030;-76
2023/06/26 09:20:34;;;;;;;12.18;8.30;;;28.50;75.50;;;;;;5009635;28;20044;-74
2023/06/26 09:23:02;;;;;;;11.55;8.13;;;28.50;74.90;;;;;;5010397;28;20022;-75
2023/06/26 09:25:28;;;;;;;18.25;8.15;;;28.60;75.30;;;;;;5009989;28;20462;-74
2023/06/26 09:27:55;;;;;;;10.50;7.53;;;28.70;75.80;;;;;;5010707;28;20022;-74
2023/06/26 09:30:21;;;;;;;19.02;8.05;;;28.70;73.90;;;;;;4991592;28;20041;-74
2023/06/26 09:32:47;;;;;;;11.70;7.20;;;28.90;74.20;;;;;;5010258;28;20038;-77
2023/06/26 09:35:13;;;;;;;10.73;7.85;;;29.00;72.20;;;;;;5009835;28;20068;-73
2023/06/26 09:37:39;;;;;;;13.25;7.65;;;28.80;72.20;;;;;;5010498;28;20026;-75
2023/06/26 09:40:06;;;;;;;14.13;8.07;;;28.90;70.70;;;;;;5008333;28;20044;-73
2023/06/26 09:42:32;;;;;;;12.05;7.65;;;29.00;69.80;;;;;;5009478;28;20033;-77
2023/06/26 09:44:58;;;;;;;13.90;6.70;;;29.20;70.30;;;;;;5009531;28;20386;-74
2023/06/26 09:47:23;;;;;;;9.60;7.00;;;29.40;68.30;;;;;;5009764;28;20033;-73
2023/06/26 09:49:50;;;;;;;10.00;7.20;;;29.60;69.50;;;;;;5008068;28;20532;-73
2023/06/26 09:52:16;;;;;;;10.75;7.18;;;29.60;66.40;;;;;;5009298;28;20038;-75
2023/06/26 09:54:44;;;;;;;10.57;7.43;;;29.50;67.40;;;;;;5009990;28;20033;-76
2023/06/26 09:57:18;;;;;;;14.23;7.28;;;29.90;69.30;;;;;;5009311;28;20041;-75
2023/06/26 09:59:45;;;;;;;12.05;7.35;;;30.20;67.50;;;;;;5008728;28;20026;-75
2023/06/26 10:02:11;;;;;;;8.65;6.97;;;30.40;64.20;;;;;;5009163;28;20165;-76
2023/06/26 10:04:38;;;;;;;11.93;7.63;;;30.30;68.70;;;;;;5008492;28;20046;-75
2023/06/26 10:07:13;;;;;;;12.68;7.05;;;30.30;65.00;;;;;;5009682;28;20028;-77
2023/06/26 10:09:42;;;;;;;9.10;7.07;;;30.70;69.50;;;;;;4991523;28;20033;-74
2023/06/26 10:12:14;;;;;;;10.43;6.83;;;31.20;63.70;;;;;;5009442;28;20033;-72
2023/06/26 10:14:42;;;;;;;8.93;6.82;;;31.40;61.80;;;;;;5009825;28;20120;-75
2023/06/26 10:17:10;;;;;;;10.38;6.55;;;31.60;62.30;;;;;;5009011;28;20432;-73
2023/06/26 10:19:38;;;;;;;13.98;7.20;;;31.80;61.60;;;;;;5007728;28;20394;-74
2023/06/26 10:22:04;;;;;;;8.73;7.00;;;31.30;58.50;;;;;;5008781;28;20091;-75
2023/06/26 10:24:33;;;;;;;13.82;7.40;;;30.80;59.80;;;;;;5008655;28;20258;-74
2023/06/26 10:27:04;;;;;;;11.35;7.22;;;30.40;60.60;;;;;;5009517;28;20029;-75
2023/06/26 10:29:31;;;;;;;9.93;6.93;;;30.30;61.50;;;;;;5008905;28;20026;-73
2023/06/26 10:32:00;;;;;;;10.10;7.07;;;30.30;59.90;;;;;;5008812;28;20038;-76
2023/06/26 10:34:26;;;;;;;16.98;7.53;;;30.40;64.30;;;;;;5008292;28;20057;-74
2023/06/26 10:37:03;;;;;;;11.13;7.38;;;30.80;62.90;;;;;;5008149;28;20061;-74
2023/06/26 10:39:47;;;;;;;12.65;7.53;;;30.60;63.10;;;;;;5006054;28;20026;-74
2023/06/26 10:42:13;;;;;;;10.88;7.30;;;30.70;61.90;;;;;;5007655;28;20029;-76
2023/06/26 10:44:44;;;;;;;13.45;8.18;;;30.70;61.90;;;;;;5009123;28;20509;-75
2023/06/26 10:47:11;;;;;;;13.45;7.53;;;30.90;59.80;;;;;;5008824;28;20463;-73
2023/06/26 10:49:39;;;;;;;14.50;7.85;;;31.20;62.00;;;;;;5007110;28;20029;-74
2023/06/26 10:52:05;;;;;;;12.38;7.82;;;31.30;59.90;;;;;;5007220;28;20026;-77
2023/06/26 10:54:37;;;;;;;13.90;7.90;;;31.40;63.10;;;;;;5006880;28;20041;-73
2023/06/26 10:57:03;;;;;;;13.25;8.57;;;31.70;60.00;;;;;;5007310;28;20080;-76
2023/06/26 10:59:31;;;;;;;9.40;7.35;;;31.70;59.20;;;;;;5006576;28;20117;-75
2023/06/26 11:01:59;;;;;;;9.15;7.15;;;31.90;60.70;;;;;;5005443;28;20041;-74
2023/06/26 11:04:44;;;;;;;11.68;7.90;;;32.20;59.30;;;;;;5008146;28;20144;-74
2023/06/26 11:07:23;;;;;;;15.50;7.68;;;32.40;58.00;;;;;;5008507;28;20029;-73
2023/06/26 11:10:08;;;;;;;15.18;8.52;;;32.40;62.90;;;;;;5009040;28;20029;-74
2023/06/26 11:12:38;;;;;;;12.88;7.85;;;32.60;57.70;;;;;;5007536;28;20038;-74
2023/06/26 11:15:07;;;;;;;;;;;32.60;59.20;;;;;;5008559;28;20621;-75
2023/06/26 11:17:34;;;;;;;14.50;8.25;;;32.20;59.40;;;;;;5008238;28;19905;-74
2023/06/26 11:20:00;;;;;;;19.02;8.30;;;31.80;58.60;;;;;;5008913;28;20130;-76
2023/06/26 11:22:26;;;;;;;11.77;7.82;;;31.40;61.40;;;;;;5008245;28;20497;-74
2023/06/26 11:24:54;;;;;;;10.57;8.05;;;31.70;62.30;;;;;;5007760;28;20125;-74
2023/06/26 11:27:23;;;;;;;16.10;8.80;;;32.40;60.00;;;;;;5008066;28;20387;-75
2023/06/26 11:29:52;;;;;;;17.20;8.60;;;32.00;58.30;;;;;;5008818;28;20026;-75
2023/06/26 11:32:17;;;;;;;10.18;7.63;;;32.00;61.50;;;;;;5008056;28;20067;-72
2023/06/26 11:34:43;;;;;;;10.73;7.75;;;32.10;59.10;;;;;;5008067;28;20129;-76
2023/06/26 11:37:09;;;;;;;13.57;7.93;;;32.10;58.20;;;;;;5008346;28;20485;-75
2023/06/26 11:39:37;;;;;;;23.60;9.13;;;32.20;59.20;;;;;;5008461;28;20030;-75
2023/06/26 11:42:04;;;;;;;14.45;8.10;;;32.60;57.40;;;;;;5009038;28;20036;-74
2023/06/26 11:44:31;;;;;;;13.63;8.32;;;32.70;58.70;;;;;;5006962;28;20049;-72
2023/06/26 11:46:57;;;;;;;11.00;8.40;;;32.20;56.20;;;;;;5008619;28;20593;-72
2023/06/26 11:49:25;;;;;;;15.25;8.23;;;31.60;58.80;;;;;;5007822;28;20056;-74
2023/06/26 11:51:51;;;;;;;9.45;7.47;;;31.50;59.20;;;;;;4990893;28;20038;-75
2023/06/26 11:54:25;;;;;;;10.27;7.50;;;31.60;60.00;;;;;;5007104;28;20111;-75
2023/06/26 11:56:52;;;;;;;10.07;7.72;;;31.60;58.30;;;;;;5008233;28;20494;-72
2023/06/26 11:59:18;;;;;;;11.88;7.97;;;31.50;58.10;;;;;;5007487;28;20057;-74
2023/06/26 12:01:44;;;;;;;12.95;8.30;;;31.20;59.80;;;;;;5008622;28;20065;-72
2023/06/26 12:04:13;;;;;;;13.93;8.05;;;31.40;59.20;;;;;;5007465;28;20029;-74
2023/06/26 12:06:40;;;;;;;12.90;8.18;;;31.40;58.00;;;;;;5006964;28;20112;-72
2023/06/26 12:09:09;;;;;;;18.90;8.88;;;31.00;60.10;;;;;;5007606;28;20030;-75
2023/06/26 12:11:37;;;;;;;15.95;8.63;;;30.70;60.50;;;;;;5007826;28;20109;-75
2023/06/26 12:14:03;;;;;;;17.65;8.63;;;30.80;63.80;;;;;;5011236;28;20045;-73
2023/06/26 12:16:30;;;;;;;15.50;8.82;;;31.00;61.70;;;;;;5010608;28;20721;-73
2023/06/26 12:19:03;;;;;;;15.32;8.98;;;31.30;60.80;;;;;;5011964;28;20112;-76
2023/06/26 12:21:40;;;;;;;12.43;8.60;;;31.30;60.30;;;;;;5009253;28;20030;-73
2023/06/26 12:24:13;;;;;;;16.38;9.00;;;31.40;61.80;;;;;;4994170;28;20419;-75
2023/06/26 12:26:43;;;;;;;15.27;9.18;;;31.30;61.80;;;;;;5011143;28;20505;-72
2023/06/26 12:29:11;;;;;;;;;;;31.10;61.60;;;;;;5012295;28;20044;-75
2023/06/26 12:32:06;;;;;;;15.05;9.15;;;30.80;61.10;;;;;;5010201;28;20011;-73
2023/06/26 12:34:33;;;;;;;14.32;9.35;;;30.70;60.90;;;;;;4988648;28;20462;-75